sensor_id;sensor_type;location;lat;lon;timestamp;P1;durP1;ratioP1;P2;durP2;ratioP2
44098;SDS011;29762;50.086;14.364;2022-07-10T00:00:14;0.70;;;0.70;;
44098;SDS011;29762;50.086;14.364;2022-07-10T00:05:39;0.80;;;0.80;;
44098;SDS011;29762;50.086;14.364;2022-07-10T00:10:58;1.05;;;1.00;;
44098;SDS011;29762;50.086;14.364;2022-07-10T00:16:17;0.85;;;0.80;;
44098;SDS011;29762;50.086;14.364;2022-07-10T00:21:36;0.95;;;0.80;;
44098;SDS011;29762;50.086;14.364;2022-07-10T00:26:55;0.80;;;0.80;;
44098;SDS011;29762;50.086;14.364;2022-07-10T00:32:15;0.70;;;0.70;;
44098;SDS011;29762;50.086;14.364;2022-07-10T00:37:34;0.80;;;0.80;;
44098;SDS011;29762;50.086;14.364;2022-07-10T00:42:55;0.70;;;0.70;;
44098;SDS011;29762;50.086;14.364;2022-07-10T00:48:14;2.00;;;0.90;;
44098;SDS011;29762;50.086;14.364;2022-07-10T00:53:33;1.23;;;0.80;;
44098;SDS011;29762;50.086;14.364;2022-07-10T00:58:52;0.70;;;0.70;;
44098;SDS011;29762;50.086;14.364;2022-07-10T01:04:12;1.00;;;0.90;;
44098;SDS011;29762;50.086;14.364;2022-07-10T01:09:31;1.30;;;0.85;;
44098;SDS011;29762;50.086;14.364;2022-07-10T01:14:51;0.95;;;0.82;;
44098;SDS011;29762;50.086;14.364;2022-07-10T01:20:10;1.15;;;0.77;;
44098;SDS011;29762;50.086;14.364;2022-07-10T01:25:30;0.90;;;0.90;;
44098;SDS011;29762;50.086;14.364;2022-07-10T01:30:49;0.75;;;0.75;;
44098;SDS011;29762;50.086;14.364;2022-07-10T01:36:08;0.93;;;0.85;;
44098;SDS011;29762;50.086;14.364;2022-07-10T01:41:28;0.85;;;0.85;;
44098;SDS011;29762;50.086;14.364;2022-07-10T01:46:47;0.95;;;0.90;;
44098;SDS011;29762;50.086;14.364;2022-07-10T01:52:08;0.70;;;0.63;;
44098;SDS011;29762;50.086;14.364;2022-07-10T01:57:29;1.27;;;0.80;;
44098;SDS011;29762;50.086;14.364;2022-07-10T02:02:48;0.70;;;0.68;;
44098;SDS011;29762;50.086;14.364;2022-07-10T02:08:27;1.10;;;1.00;;
44098;SDS011;29762;50.086;14.364;2022-07-10T02:13:46;0.88;;;0.80;;
44098;SDS011;29762;50.086;14.364;2022-07-10T02:19:06;2.95;;;1.15;;
44098;SDS011;29762;50.086;14.364;2022-07-10T02:24:25;0.70;;;0.70;;
44098;SDS011;29762;50.086;14.364;2022-07-10T02:29:45;0.90;;;0.82;;
44098;SDS011;29762;50.086;14.364;2022-07-10T02:35:04;0.80;;;0.80;;
44098;SDS011;29762;50.086;14.364;2022-07-10T02:40:23;0.95;;;0.85;;
44098;SDS011;29762;50.086;14.364;2022-07-10T02:45:43;1.00;;;0.82;;
44098;SDS011;29762;50.086;14.364;2022-07-10T02:51:02;1.70;;;0.70;;
44098;SDS011;29762;50.086;14.364;2022-07-10T02:56:21;1.15;;;0.90;;
44098;SDS011;29762;50.086;14.364;2022-07-10T03:01:40;1.13;;;0.70;;
44098;SDS011;29762;50.086;14.364;2022-07-10T03:07:00;0.80;;;0.80;;
44098;SDS011;29762;50.086;14.364;2022-07-10T03:12:19;0.80;;;0.80;;
44098;SDS011;29762;50.086;14.364;2022-07-10T03:17:38;1.30;;;0.98;;
44098;SDS011;29762;50.086;14.364;2022-07-10T03:22:59;1.08;;;0.90;;
44098;SDS011;29762;50.086;14.364;2022-07-10T03:28:18;0.85;;;0.80;;
44098;SDS011;29762;50.086;14.364;2022-07-10T03:33:37;0.80;;;0.80;;
44098;SDS011;29762;50.086;14.364;2022-07-10T03:38:57;0.93;;;0.70;;
44098;SDS011;29762;50.086;14.364;2022-07-10T03:44:17;1.83;;;1.00;;
44098;SDS011;29762;50.086;14.364;2022-07-10T03:49:36;1.73;;;0.70;;
44098;SDS011;29762;50.086;14.364;2022-07-10T03:54:57;0.70;;;0.70;;
44098;SDS011;29762;50.086;14.364;2022-07-10T04:00:17;0.80;;;0.80;;
44098;SDS011;29762;50.086;14.364;2022-07-10T04:05:36;0.70;;;0.70;;
44098;SDS011;29762;50.086;14.364;2022-07-10T04:10:55;0.60;;;0.60;;
44098;SDS011;29762;50.086;14.364;2022-07-10T04:16:14;0.70;;;0.70;;
44098;SDS011;29762;50.086;14.364;2022-07-10T04:21:33;1.02;;;0.70;;
44098;SDS011;29762;50.086;14.364;2022-07-10T04:26:53;0.70;;;0.70;;
44098;SDS011;29762;50.086;14.364;2022-07-10T04:32:12;0.82;;;0.70;;
44098;SDS011;29762;50.086;14.364;2022-07-10T04:37:32;0.70;;;0.70;;
44098;SDS011;29762;50.086;14.364;2022-07-10T04:42:53;0.93;;;0.60;;
44098;SDS011;29762;50.086;14.364;2022-07-10T04:48:12;1.27;;;0.63;;
44098;SDS011;29762;50.086;14.364;2022-07-10T04:53:32;2.20;;;0.70;;
44098;SDS011;29762;50.086;14.364;2022-07-10T04:58:51;1.60;;;0.68;;
44098;SDS011;29762;50.086;14.364;2022-07-10T05:04:10;0.70;;;0.70;;
44098;SDS011;29762;50.086;14.364;2022-07-10T05:09:30;0.80;;;0.77;;
44098;SDS011;29762;50.086;14.364;2022-07-10T05:14:49;1.02;;;0.60;;
44098;SDS011;29762;50.086;14.364;2022-07-10T05:20:08;1.40;;;0.65;;
44098;SDS011;29762;50.086;14.364;2022-07-10T05:25:28;2.17;;;0.70;;
44098;SDS011;29762;50.086;14.364;2022-07-10T05:30:49;0.70;;;0.63;;
44098;SDS011;29762;50.086;14.364;2022-07-10T05:36:08;1.10;;;0.77;;
44098;SDS011;29762;50.086;14.364;2022-07-10T05:41:28;1.10;;;0.85;;
44098;SDS011;29762;50.086;14.364;2022-07-10T05:46:47;0.88;;;0.65;;
44098;SDS011;29762;50.086;14.364;2022-07-10T05:52:06;0.82;;;0.68;;
44098;SDS011;29762;50.086;14.364;2022-07-10T05:57:26;0.70;;;0.70;;
44098;SDS011;29762;50.086;14.364;2022-07-10T06:02:45;1.50;;;0.60;;
44098;SDS011;29762;50.086;14.364;2022-07-10T06:08:04;0.82;;;0.57;;
44098;SDS011;29762;50.086;14.364;2022-07-10T06:13:23;1.02;;;0.52;;
44098;SDS011;29762;50.086;14.364;2022-07-10T06:18:43;1.08;;;0.70;;
44098;SDS011;29762;50.086;14.364;2022-07-10T06:24:02;0.90;;;0.60;;
44098;SDS011;29762;50.086;14.364;2022-07-10T06:29:21;0.88;;;0.60;;
44098;SDS011;29762;50.086;14.364;2022-07-10T06:34:40;1.50;;;0.60;;
44098;SDS011;29762;50.086;14.364;2022-07-10T06:39:59;0.70;;;0.60;;
44098;SDS011;29762;50.086;14.364;2022-07-10T06:45:19;0.88;;;0.60;;
44098;SDS011;29762;50.086;14.364;2022-07-10T06:50:38;0.80;;;0.60;;
44098;SDS011;29762;50.086;14.364;2022-07-10T06:55:57;0.95;;;0.60;;
44098;SDS011;29762;50.086;14.364;2022-07-10T07:01:17;1.02;;;0.68;;
44098;SDS011;29762;50.086;14.364;2022-07-10T07:06:36;2.05;;;0.80;;
44098;SDS011;29762;50.086;14.364;2022-07-10T07:11:55;1.10;;;0.50;;
44098;SDS011;29762;50.086;14.364;2022-07-10T07:17:15;0.55;;;0.50;;
44098;SDS011;29762;50.086;14.364;2022-07-10T07:22:40;1.27;;;0.63;;
44098;SDS011;29762;50.086;14.364;2022-07-10T07:28:19;1.17;;;0.50;;
44098;SDS011;29762;50.086;14.364;2022-07-10T07:33:38;0.95;;;0.60;;
44098;SDS011;29762;50.086;14.364;2022-07-10T07:38:58;0.98;;;0.60;;
44098;SDS011;29762;50.086;14.364;2022-07-10T07:44:17;1.60;;;0.50;;
44098;SDS011;29762;50.086;14.364;2022-07-10T07:49:36;0.80;;;0.50;;
44098;SDS011;29762;50.086;14.364;2022-07-10T07:54:57;0.57;;;0.57;;
44098;SDS011;29762;50.086;14.364;2022-07-10T08:00:16;0.75;;;0.60;;
44098;SDS011;29762;50.086;14.364;2022-07-10T08:05:41;0.80;;;0.60;;
44098;SDS011;29762;50.086;14.364;2022-07-10T08:11:00;1.25;;;0.70;;
44098;SDS011;29762;50.086;14.364;2022-07-10T08:16:19;1.50;;;0.60;;
44098;SDS011;29762;50.086;14.364;2022-07-10T08:21:39;1.30;;;0.60;;
44098;SDS011;29762;50.086;14.364;2022-07-10T08:26:58;0.75;;;0.50;;
44098;SDS011;29762;50.086;14.364;2022-07-10T08:32:18;1.05;;;0.70;;
44098;SDS011;29762;50.086;14.364;2022-07-10T08:37:39;0.65;;;0.50;;
44098;SDS011;29762;50.086;14.364;2022-07-10T08:42:58;0.88;;;0.60;;
44098;SDS011;29762;50.086;14.364;2022-07-10T08:48:19;1.00;;;0.50;;
44098;SDS011;29762;50.086;14.364;2022-07-10T08:53:40;1.10;;;0.60;;
44098;SDS011;29762;50.086;14.364;2022-07-10T08:59:01;0.88;;;0.50;;
44098;SDS011;29762;50.086;14.364;2022-07-10T09:04:22;0.40;;;0.40;;
44098;SDS011;29762;50.086;14.364;2022-07-10T09:09:55;0.77;;;0.60;;
44098;SDS011;29762;50.086;14.364;2022-07-10T09:15:15;0.73;;;0.63;;
44098;SDS011;29762;50.086;14.364;2022-07-10T09:20:36;0.60;;;0.50;;
44098;SDS011;29762;50.086;14.364;2022-07-10T09:25:56;0.82;;;0.60;;
44098;SDS011;29762;50.086;14.364;2022-07-10T09:31:15;1.17;;;0.63;;
44098;SDS011;29762;50.086;14.364;2022-07-10T09:36:34;0.68;;;0.43;;
44098;SDS011;29762;50.086;14.364;2022-07-10T09:41:54;0.82;;;0.47;;
44098;SDS011;29762;50.086;14.364;2022-07-10T09:47:23;0.43;;;0.43;;
44098;SDS011;29762;50.086;14.364;2022-07-10T09:52:42;0.75;;;0.47;;
44098;SDS011;29762;50.086;14.364;2022-07-10T09:58:06;0.88;;;0.60;;
44098;SDS011;29762;50.086;14.364;2022-07-10T10:03:26;0.50;;;0.50;;
44098;SDS011;29762;50.086;14.364;2022-07-10T10:14:08;0.50;;;0.50;;
44098;SDS011;29762;50.086;14.364;2022-07-10T10:19:27;0.50;;;0.50;;
44098;SDS011;29762;50.086;14.364;2022-07-10T10:25:08;0.50;;;0.50;;
44098;SDS011;29762;50.086;14.364;2022-07-10T10:30:28;0.70;;;0.60;;
44098;SDS011;29762;50.086;14.364;2022-07-10T10:35:48;0.63;;;0.60;;
44098;SDS011;29762;50.086;14.364;2022-07-10T10:41:24;0.50;;;0.50;;
44098;SDS011;29762;50.086;14.364;2022-07-10T10:52:09;0.50;;;0.45;;
44098;SDS011;29762;50.086;14.364;2022-07-10T11:02:51;0.65;;;0.50;;
44098;SDS011;29762;50.086;14.364;2022-07-10T11:13:49;0.70;;;0.50;;
44098;SDS011;29762;50.086;14.364;2022-07-10T11:19:08;0.80;;;0.60;;
44098;SDS011;29762;50.086;14.364;2022-07-10T11:24:33;0.70;;;0.60;;
44098;SDS011;29762;50.086;14.364;2022-07-10T11:29:58;0.70;;;0.52;;
44098;SDS011;29762;50.086;14.364;2022-07-10T11:35:18;0.43;;;0.43;;
44098;SDS011;29762;50.086;14.364;2022-07-10T11:40:37;0.40;;;0.40;;
44098;SDS011;29762;50.086;14.364;2022-07-10T11:45:56;0.50;;;0.50;;
44098;SDS011;29762;50.086;14.364;2022-07-10T11:56:47;1.10;;;0.60;;
44098;SDS011;29762;50.086;14.364;2022-07-10T12:02:07;0.50;;;0.50;;
44098;SDS011;29762;50.086;14.364;2022-07-10T12:07:26;1.23;;;0.50;;
44098;SDS011;29762;50.086;14.364;2022-07-10T12:12:45;1.23;;;0.65;;
44098;SDS011;29762;50.086;14.364;2022-07-10T12:18:05;0.45;;;0.40;;
44098;SDS011;29762;50.086;14.364;2022-07-10T12:23:25;0.57;;;0.50;;
44098;SDS011;29762;50.086;14.364;2022-07-10T12:28:51;0.60;;;0.50;;
44098;SDS011;29762;50.086;14.364;2022-07-10T12:34:11;0.47;;;0.47;;
44098;SDS011;29762;50.086;14.364;2022-07-10T12:39:31;1.45;;;0.50;;
44098;SDS011;29762;50.086;14.364;2022-07-10T12:44:50;0.40;;;0.40;;
44098;SDS011;29762;50.086;14.364;2022-07-10T12:50:09;0.45;;;0.45;;
44098;SDS011;29762;50.086;14.364;2022-07-10T12:55:34;0.50;;;0.50;;
44098;SDS011;29762;50.086;14.364;2022-07-10T13:00:53;1.35;;;0.40;;
44098;SDS011;29762;50.086;14.364;2022-07-10T13:06:29;1.20;;;0.50;;
44098;SDS011;29762;50.086;14.364;2022-07-10T13:11:49;0.52;;;0.50;;
44098;SDS011;29762;50.086;14.364;2022-07-10T13:17:08;0.75;;;0.60;;
44098;SDS011;29762;50.086;14.364;2022-07-10T13:22:28;0.60;;;0.60;;
44098;SDS011;29762;50.086;14.364;2022-07-10T13:27:47;0.90;;;0.70;;
44098;SDS011;29762;50.086;14.364;2022-07-10T13:33:07;1.70;;;0.60;;
44098;SDS011;29762;50.086;14.364;2022-07-10T13:38:26;0.55;;;0.55;;
44098;SDS011;29762;50.086;14.364;2022-07-10T13:43:45;2.83;;;0.70;;
44098;SDS011;29762;50.086;14.364;2022-07-10T13:49:05;1.02;;;0.70;;
44098;SDS011;29762;50.086;14.364;2022-07-10T13:54:25;0.90;;;0.70;;
44098;SDS011;29762;50.086;14.364;2022-07-10T13:59:44;1.52;;;0.73;;
44098;SDS011;29762;50.086;14.364;2022-07-10T14:45:13;4.88;;;1.00;;
44098;SDS011;29762;50.086;14.364;2022-07-10T14:50:33;2.53;;;0.90;;
44098;SDS011;29762;50.086;14.364;2022-07-10T15:14:10;3.55;;;1.10;;
44098;SDS011;29762;50.086;14.364;2022-07-10T15:19:30;2.17;;;0.80;;
44098;SDS011;29762;50.086;14.364;2022-07-10T15:24:50;1.85;;;0.88;;
44098;SDS011;29762;50.086;14.364;2022-07-10T15:30:09;4.32;;;1.00;;
44098;SDS011;29762;50.086;14.364;2022-07-10T15:35:33;1.92;;;0.90;;
44098;SDS011;29762;50.086;14.364;2022-07-10T15:40:53;1.50;;;0.90;;
44098;SDS011;29762;50.086;14.364;2022-07-10T15:46:12;7.45;;;1.20;;
44098;SDS011;29762;50.086;14.364;2022-07-10T15:51:33;1.88;;;1.05;;
44098;SDS011;29762;50.086;14.364;2022-07-10T15:56:53;4.60;;;1.00;;
44098;SDS011;29762;50.086;14.364;2022-07-10T16:02:12;4.50;;;1.10;;
44098;SDS011;29762;50.086;14.364;2022-07-10T16:19:16;4.68;;;1.27;;
44098;SDS011;29762;50.086;14.364;2022-07-10T16:24:35;3.05;;;1.35;;
44098;SDS011;29762;50.086;14.364;2022-07-10T16:30:15;2.78;;;1.35;;
44098;SDS011;29762;50.086;14.364;2022-07-10T16:35:34;5.97;;;1.15;;
44098;SDS011;29762;50.086;14.364;2022-07-10T16:40:53;2.47;;;1.17;;
44098;SDS011;29762;50.086;14.364;2022-07-10T16:46:13;2.55;;;1.05;;
44098;SDS011;29762;50.086;14.364;2022-07-10T16:51:33;3.25;;;0.95;;
44098;SDS011;29762;50.086;14.364;2022-07-10T16:56:52;2.72;;;0.95;;
44098;SDS011;29762;50.086;14.364;2022-07-10T17:02:12;7.95;;;1.20;;
44098;SDS011;29762;50.086;14.364;2022-07-10T17:07:31;7.03;;;1.25;;
44098;SDS011;29762;50.086;14.364;2022-07-10T17:12:51;3.03;;;1.08;;
44098;SDS011;29762;50.086;14.364;2022-07-10T17:18:11;3.83;;;1.00;;
44098;SDS011;29762;50.086;14.364;2022-07-10T17:23:30;2.78;;;1.10;;
44098;SDS011;29762;50.086;14.364;2022-07-10T17:28:49;3.97;;;1.10;;
44098;SDS011;29762;50.086;14.364;2022-07-10T17:34:09;5.30;;;1.10;;
44098;SDS011;29762;50.086;14.364;2022-07-10T17:39:28;2.47;;;1.00;;
44098;SDS011;29762;50.086;14.364;2022-07-10T17:44:48;3.67;;;1.10;;
44098;SDS011;29762;50.086;14.364;2022-07-10T17:50:07;2.63;;;0.90;;
44098;SDS011;29762;50.086;14.364;2022-07-10T17:55:27;1.73;;;1.10;;
44098;SDS011;29762;50.086;14.364;2022-07-10T18:00:47;3.53;;;1.00;;
44098;SDS011;29762;50.086;14.364;2022-07-10T18:06:07;4.65;;;1.30;;
44098;SDS011;29762;50.086;14.364;2022-07-10T18:11:26;3.20;;;0.98;;
44098;SDS011;29762;50.086;14.364;2022-07-10T18:16:45;2.33;;;1.17;;
44098;SDS011;29762;50.086;14.364;2022-07-10T18:22:06;2.58;;;0.95;;
44098;SDS011;29762;50.086;14.364;2022-07-10T18:27:27;2.67;;;0.98;;
44098;SDS011;29762;50.086;14.364;2022-07-10T18:32:47;2.50;;;1.20;;
44098;SDS011;29762;50.086;14.364;2022-07-10T18:38:25;2.17;;;1.00;;
44098;SDS011;29762;50.086;14.364;2022-07-10T18:43:44;2.13;;;1.20;;
44098;SDS011;29762;50.086;14.364;2022-07-10T18:49:03;7.63;;;1.15;;
44098;SDS011;29762;50.086;14.364;2022-07-10T18:54:23;2.80;;;0.93;;
44098;SDS011;29762;50.086;14.364;2022-07-10T18:59:42;2.70;;;1.33;;
44098;SDS011;29762;50.086;14.364;2022-07-10T19:05:05;2.10;;;1.00;;
44098;SDS011;29762;50.086;14.364;2022-07-10T19:10:25;4.65;;;1.13;;
44098;SDS011;29762;50.086;14.364;2022-07-10T19:15:44;1.80;;;0.90;;
44098;SDS011;29762;50.086;14.364;2022-07-10T19:21:03;1.95;;;1.00;;
44098;SDS011;29762;50.086;14.364;2022-07-10T19:26:23;2.22;;;1.27;;
44098;SDS011;29762;50.086;14.364;2022-07-10T19:31:44;1.27;;;0.82;;
44098;SDS011;29762;50.086;14.364;2022-07-10T19:37:04;1.45;;;0.90;;
44098;SDS011;29762;50.086;14.364;2022-07-10T19:42:24;4.05;;;1.35;;
44098;SDS011;29762;50.086;14.364;2022-07-10T19:47:45;1.52;;;0.90;;
44098;SDS011;29762;50.086;14.364;2022-07-10T19:53:05;1.80;;;0.90;;
44098;SDS011;29762;50.086;14.364;2022-07-10T19:58:25;1.38;;;0.88;;
44098;SDS011;29762;50.086;14.364;2022-07-10T20:03:45;2.05;;;0.93;;
44098;SDS011;29762;50.086;14.364;2022-07-10T20:09:05;1.23;;;0.77;;
44098;SDS011;29762;50.086;14.364;2022-07-10T20:14:25;2.10;;;0.95;;
44098;SDS011;29762;50.086;14.364;2022-07-10T20:19:46;2.70;;;0.80;;
44098;SDS011;29762;50.086;14.364;2022-07-10T20:25:06;1.67;;;0.93;;
44098;SDS011;29762;50.086;14.364;2022-07-10T20:30:26;2.00;;;0.90;;
44098;SDS011;29762;50.086;14.364;2022-07-10T20:35:46;1.58;;;0.88;;
44098;SDS011;29762;50.086;14.364;2022-07-10T20:41:25;1.67;;;0.85;;
44098;SDS011;29762;50.086;14.364;2022-07-10T20:46:45;1.50;;;1.00;;
44098;SDS011;29762;50.086;14.364;2022-07-10T20:52:05;2.20;;;0.70;;
44098;SDS011;29762;50.086;14.364;2022-07-10T20:57:25;1.77;;;0.93;;
44098;SDS011;29762;50.086;14.364;2022-07-10T21:02:44;2.05;;;1.05;;
44098;SDS011;29762;50.086;14.364;2022-07-10T21:08:04;1.10;;;0.90;;
44098;SDS011;29762;50.086;14.364;2022-07-10T21:13:24;1.45;;;0.90;;
44098;SDS011;29762;50.086;14.364;2022-07-10T21:18:46;2.03;;;0.82;;
44098;SDS011;29762;50.086;14.364;2022-07-10T21:24:06;1.25;;;0.80;;
44098;SDS011;29762;50.086;14.364;2022-07-10T21:29:25;1.52;;;1.00;;
44098;SDS011;29762;50.086;14.364;2022-07-10T21:34:44;1.00;;;0.80;;
44098;SDS011;29762;50.086;14.364;2022-07-10T21:40:04;1.90;;;0.80;;
44098;SDS011;29762;50.086;14.364;2022-07-10T21:45:24;0.93;;;0.80;;
44098;SDS011;29762;50.086;14.364;2022-07-10T21:50:43;0.93;;;0.80;;
44098;SDS011;29762;50.086;14.364;2022-07-10T21:56:03;1.70;;;0.85;;
44098;SDS011;29762;50.086;14.364;2022-07-10T22:01:22;0.73;;;0.70;;
44098;SDS011;29762;50.086;14.364;2022-07-10T22:06:42;1.13;;;0.65;;
44098;SDS011;29762;50.086;14.364;2022-07-10T22:12:01;1.08;;;0.70;;
44098;SDS011;29762;50.086;14.364;2022-07-10T22:17:20;1.10;;;0.60;;
44098;SDS011;29762;50.086;14.364;2022-07-10T22:22:40;9.02;;;2.00;;
44098;SDS011;29762;50.086;14.364;2022-07-10T22:28:00;1.13;;;0.90;;
44098;SDS011;29762;50.086;14.364;2022-07-10T22:33:19;0.77;;;0.68;;
44098;SDS011;29762;50.086;14.364;2022-07-10T22:38:39;0.90;;;0.65;;
44098;SDS011;29762;50.086;14.364;2022-07-10T22:43:58;0.60;;;0.60;;
44098;SDS011;29762;50.086;14.364;2022-07-10T22:49:18;1.25;;;0.70;;
44098;SDS011;29762;50.086;14.364;2022-07-10T22:54:37;0.90;;;0.80;;
44098;SDS011;29762;50.086;14.364;2022-07-10T22:59:56;1.10;;;0.80;;
44098;SDS011;29762;50.086;14.364;2022-07-10T23:05:15;0.80;;;0.70;;
44098;SDS011;29762;50.086;14.364;2022-07-10T23:10:35;0.70;;;0.60;;
44098;SDS011;29762;50.086;14.364;2022-07-10T23:15:55;0.93;;;0.75;;
44098;SDS011;29762;50.086;14.364;2022-07-10T23:21:14;1.52;;;0.80;;
44098;SDS011;29762;50.086;14.364;2022-07-10T23:26:34;1.02;;;0.75;;
44098;SDS011;29762;50.086;14.364;2022-07-10T23:31:56;1.00;;;0.80;;
44098;SDS011;29762;50.086;14.364;2022-07-10T23:37:15;1.23;;;0.60;;
44098;SDS011;29762;50.086;14.364;2022-07-10T23:42:35;0.60;;;0.52;;
44098;SDS011;29762;50.086;14.364;2022-07-10T23:47:54;1.70;;;0.80;;
44098;SDS011;29762;50.086;14.364;2022-07-10T23:53:14;0.98;;;0.70;;
44098;SDS011;29762;50.086;14.364;2022-07-10T23:58:34;0.65;;;0.60;;
